sensor_id;sensor_type;location;lat;lon;timestamp;temperature;humidity
78514;SHT31;67814;51.976;5.810;2023-02-28T00:02:26;3.4;62.1
78514;SHT31;67814;51.976;5.810;2023-02-28T00:04:58;3.4;62.3
78514;SHT31;67814;51.976;5.810;2023-02-28T00:07:31;3.5;62.0
78514;SHT31;67814;51.976;5.810;2023-02-28T00:10:01;3.5;61.8
78514;SHT31;67814;51.976;5.810;2023-02-28T00:12:32;3.6;62.2
78514;SHT31;67814;51.976;5.810;2023-02-28T00:15:03;3.6;61.7
78514;SHT31;67814;51.976;5.810;2023-02-28T00:17:34;3.6;61.9
78514;SHT31;67814;51.976;5.810;2023-02-28T00:20:06;3.7;61.9
78514;SHT31;67814;51.976;5.810;2023-02-28T00:22:38;3.7;62.2
78514;SHT31;67814;51.976;5.810;2023-02-28T00:25:10;3.8;61.9
78514;SHT31;67814;51.976;5.810;2023-02-28T00:27:40;3.9;61.6
78514;SHT31;67814;51.976;5.810;2023-02-28T00:30:12;3.9;61.6
78514;SHT31;67814;51.976;5.810;2023-02-28T00:32:43;4.0;61.0
78514;SHT31;67814;51.976;5.810;2023-02-28T00:35:15;4.1;61.5
78514;SHT31;67814;51.976;5.810;2023-02-28T00:37:45;4.1;60.9
78514;SHT31;67814;51.976;5.810;2023-02-28T00:40:14;4.2;60.8
78514;SHT31;67814;51.976;5.810;2023-02-28T00:42:44;4.2;60.5
78514;SHT31;67814;51.976;5.810;2023-02-28T00:45:14;4.3;60.2
78514;SHT31;67814;51.976;5.810;2023-02-28T00:47:43;4.3;59.8
78514;SHT31;67814;51.976;5.810;2023-02-28T00:50:15;4.4;59.8
78514;SHT31;67814;51.976;5.810;2023-02-28T00:52:45;4.4;59.8
78514;SHT31;67814;51.976;5.810;2023-02-28T00:55:17;4.5;60.0
78514;SHT31;67814;51.976;5.810;2023-02-28T00:57:47;4.5;59.7
78514;SHT31;67814;51.976;5.810;2023-02-28T01:00:17;4.5;58.8
78514;SHT31;67814;51.976;5.810;2023-02-28T01:02:47;4.6;58.4
78514;SHT31;67814;51.976;5.810;2023-02-28T01:05:16;4.6;59.3
78514;SHT31;67814;51.976;5.810;2023-02-28T01:07:46;4.6;59.2
78514;SHT31;67814;51.976;5.810;2023-02-28T01:10:16;4.7;59.5
78514;SHT31;67814;51.976;5.810;2023-02-28T01:12:45;4.7;58.8
78514;SHT31;67814;51.976;5.810;2023-02-28T01:15:15;4.7;59.2
78514;SHT31;67814;51.976;5.810;2023-02-28T01:17:45;4.7;58.3
78514;SHT31;67814;51.976;5.810;2023-02-28T01:20:14;4.8;58.6
78514;SHT31;67814;51.976;5.810;2023-02-28T01:22:44;4.8;58.1
78514;SHT31;67814;51.976;5.810;2023-02-28T01:25:16;4.8;58.6
78514;SHT31;67814;51.976;5.810;2023-02-28T01:27:45;4.9;58.6
78514;SHT31;67814;51.976;5.810;2023-02-28T01:30:15;4.9;58.7
78514;SHT31;67814;51.976;5.810;2023-02-28T01:32:45;4.9;58.5
78514;SHT31;67814;51.976;5.810;2023-02-28T01:35:16;5.0;58.3
78514;SHT31;67814;51.976;5.810;2023-02-28T01:37:46;5.0;58.1
78514;SHT31;67814;51.976;5.810;2023-02-28T01:40:18;5.0;57.6
78514;SHT31;67814;51.976;5.810;2023-02-28T01:42:47;5.1;57.1
78514;SHT31;67814;51.976;5.810;2023-02-28T01:45:27;5.1;58.0
78514;SHT31;67814;51.976;5.810;2023-02-28T01:48:02;5.1;57.4
78514;SHT31;67814;51.976;5.810;2023-02-28T01:50:37;5.1;57.4
78514;SHT31;67814;51.976;5.810;2023-02-28T01:53:13;5.2;57.5
78514;SHT31;67814;51.976;5.810;2023-02-28T01:55:48;5.2;57.8
78514;SHT31;67814;51.976;5.810;2023-02-28T01:58:20;5.2;58.4
78514;SHT31;67814;51.976;5.810;2023-02-28T02:00:50;5.3;58.4
78514;SHT31;67814;51.976;5.810;2023-02-28T02:03:21;5.3;57.2
78514;SHT31;67814;51.976;5.810;2023-02-28T02:05:50;5.3;57.6
78514;SHT31;67814;51.976;5.810;2023-02-28T02:08:23;5.3;57.4
78514;SHT31;67814;51.976;5.810;2023-02-28T02:10:57;5.3;57.2
78514;SHT31;67814;51.976;5.810;2023-02-28T02:13:36;5.3;56.3
78514;SHT31;67814;51.976;5.810;2023-02-28T02:16:15;5.3;56.5
78514;SHT31;67814;51.976;5.810;2023-02-28T02:18:52;5.3;56.3
78514;SHT31;67814;51.976;5.810;2023-02-28T02:21:59;5.3;56.2
78514;SHT31;67814;51.976;5.810;2023-02-28T02:24:47;5.3;56.2
78514;SHT31;67814;51.976;5.810;2023-02-28T02:27:25;5.3;57.9
78514;SHT31;67814;51.976;5.810;2023-02-28T02:36:03;5.3;56.7
78514;SHT31;67814;51.976;5.810;2023-02-28T02:38:45;5.4;57.6
78514;SHT31;67814;51.976;5.810;2023-02-28T02:41:23;5.4;58.1
78514;SHT31;67814;51.976;5.810;2023-02-28T02:43:58;5.4;58.9
78514;SHT31;67814;51.976;5.810;2023-02-28T02:46:34;5.4;56.0
78514;SHT31;67814;51.976;5.810;2023-02-28T02:49:08;5.5;56.0
78514;SHT31;67814;51.976;5.810;2023-02-28T02:51:40;5.5;55.3
78514;SHT31;67814;51.976;5.810;2023-02-28T02:54:14;5.5;54.9
78514;SHT31;67814;51.976;5.810;2023-02-28T02:56:48;5.5;54.4
78514;SHT31;67814;51.976;5.810;2023-02-28T02:59:21;5.5;54.8
78514;SHT31;67814;51.976;5.810;2023-02-28T03:01:55;5.5;54.0
78514;SHT31;67814;51.976;5.810;2023-02-28T03:04:34;5.5;54.3
78514;SHT31;67814;51.976;5.810;2023-02-28T03:07:04;5.5;53.8
78514;SHT31;67814;51.976;5.810;2023-02-28T03:09:34;5.5;53.5
78514;SHT31;67814;51.976;5.810;2023-02-28T03:12:09;5.5;53.2
78514;SHT31;67814;51.976;5.810;2023-02-28T03:14:59;5.5;53.0
78514;SHT31;67814;51.976;5.810;2023-02-28T03:18:06;5.5;52.4
78514;SHT31;67814;51.976;5.810;2023-02-28T03:20:48;5.5;51.4
78514;SHT31;67814;51.976;5.810;2023-02-28T03:23:24;5.5;51.6
78514;SHT31;67814;51.976;5.810;2023-02-28T03:26:01;5.5;51.2
78514;SHT31;67814;51.976;5.810;2023-02-28T03:28:41;5.5;50.8
78514;SHT31;67814;51.976;5.810;2023-02-28T03:31:17;5.5;50.9
78514;SHT31;67814;51.976;5.810;2023-02-28T03:33:58;5.5;50.2
78514;SHT31;67814;51.976;5.810;2023-02-28T03:36:30;5.5;50.6
78514;SHT31;67814;51.976;5.810;2023-02-28T03:39:07;5.6;50.0
78514;SHT31;67814;51.976;5.810;2023-02-28T03:41:42;5.6;49.2
78514;SHT31;67814;51.976;5.810;2023-02-28T03:44:21;5.6;49.5
78514;SHT31;67814;51.976;5.810;2023-02-28T03:46:59;5.6;48.7
78514;SHT31;67814;51.976;5.810;2023-02-28T03:49:34;5.6;49.4
78514;SHT31;67814;51.976;5.810;2023-02-28T03:52:07;5.6;48.8
78514;SHT31;67814;51.976;5.810;2023-02-28T03:54:42;5.7;48.1
78514;SHT31;67814;51.976;5.810;2023-02-28T03:57:20;5.7;48.3
78514;SHT31;67814;51.976;5.810;2023-02-28T03:59:59;5.7;48.3
78514;SHT31;67814;51.976;5.810;2023-02-28T04:02:31;5.7;48.8
78514;SHT31;67814;51.976;5.810;2023-02-28T04:05:02;5.7;49.1
78514;SHT31;67814;51.976;5.810;2023-02-28T04:07:31;5.8;46.7
78514;SHT31;67814;51.976;5.810;2023-02-28T04:10:02;5.7;48.2
78514;SHT31;67814;51.976;5.810;2023-02-28T04:12:32;5.7;47.8
78514;SHT31;67814;51.976;5.810;2023-02-28T04:15:01;5.7;48.6
78514;SHT31;67814;51.976;5.810;2023-02-28T04:17:31;5.7;51.6
78514;SHT31;67814;51.976;5.810;2023-02-28T04:20:01;5.7;47.2
78514;SHT31;67814;51.976;5.810;2023-02-28T04:22:31;5.7;49.1
78514;SHT31;67814;51.976;5.810;2023-02-28T04:25:02;5.7;49.1
78514;SHT31;67814;51.976;5.810;2023-02-28T04:27:33;5.7;49.6
78514;SHT31;67814;51.976;5.810;2023-02-28T04:30:03;5.7;49.2
78514;SHT31;67814;51.976;5.810;2023-02-28T04:32:33;5.7;51.2
78514;SHT31;67814;51.976;5.810;2023-02-28T04:35:02;5.7;49.9
78514;SHT31;67814;51.976;5.810;2023-02-28T04:37:32;5.6;49.9
78514;SHT31;67814;51.976;5.810;2023-02-28T04:40:04;5.6;52.4
78514;SHT31;67814;51.976;5.810;2023-02-28T04:42:34;5.6;51.6
78514;SHT31;67814;51.976;5.810;2023-02-28T04:45:05;5.6;52.5
78514;SHT31;67814;51.976;5.810;2023-02-28T04:47:37;5.6;52.5
78514;SHT31;67814;51.976;5.810;2023-02-28T04:50:07;5.6;50.7
78514;SHT31;67814;51.976;5.810;2023-02-28T04:52:37;5.6;50.5
78514;SHT31;67814;51.976;5.810;2023-02-28T04:55:10;5.5;50.7
78514;SHT31;67814;51.976;5.810;2023-02-28T04:57:39;5.5;52.1
78514;SHT31;67814;51.976;5.810;2023-02-28T05:00:10;5.5;50.6
78514;SHT31;67814;51.976;5.810;2023-02-28T05:02:44;5.4;50.9
78514;SHT31;67814;51.976;5.810;2023-02-28T05:05:13;5.4;51.8
78514;SHT31;67814;51.976;5.810;2023-02-28T05:07:45;5.3;52.2
78514;SHT31;67814;51.976;5.810;2023-02-28T05:10:14;5.3;51.6
78514;SHT31;67814;51.976;5.810;2023-02-28T05:12:44;5.3;52.2
78514;SHT31;67814;51.976;5.810;2023-02-28T05:15:16;5.3;52.4
78514;SHT31;67814;51.976;5.810;2023-02-28T05:17:46;5.3;52.1
78514;SHT31;67814;51.976;5.810;2023-02-28T05:20:16;5.3;53.8
78514;SHT31;67814;51.976;5.810;2023-02-28T05:22:47;5.2;52.7
78514;SHT31;67814;51.976;5.810;2023-02-28T05:25:21;5.2;53.4
78514;SHT31;67814;51.976;5.810;2023-02-28T05:27:53;5.2;53.3
78514;SHT31;67814;51.976;5.810;2023-02-28T05:30:22;5.2;54.3
78514;SHT31;67814;51.976;5.810;2023-02-28T05:32:52;5.2;54.1
78514;SHT31;67814;51.976;5.810;2023-02-28T05:35:22;5.2;53.6
78514;SHT31;67814;51.976;5.810;2023-02-28T05:37:52;5.1;53.6
78514;SHT31;67814;51.976;5.810;2023-02-28T05:40:21;5.1;54.4
78514;SHT31;67814;51.976;5.810;2023-02-28T05:42:51;5.1;55.5
78514;SHT31;67814;51.976;5.810;2023-02-28T05:45:21;5.1;55.5
78514;SHT31;67814;51.976;5.810;2023-02-28T05:47:53;5.1;55.3
78514;SHT31;67814;51.976;5.810;2023-02-28T05:50:22;5.1;56.1
78514;SHT31;67814;51.976;5.810;2023-02-28T05:52:52;5.1;54.4
78514;SHT31;67814;51.976;5.810;2023-02-28T05:55:22;5.1;54.5
78514;SHT31;67814;51.976;5.810;2023-02-28T05:57:51;5.1;54.3
78514;SHT31;67814;51.976;5.810;2023-02-28T06:00:22;5.1;54.4
78514;SHT31;67814;51.976;5.810;2023-02-28T06:02:52;5.1;54.4
78514;SHT31;67814;51.976;5.810;2023-02-28T06:05:23;5.1;55.1
78514;SHT31;67814;51.976;5.810;2023-02-28T06:07:53;5.1;55.8
78514;SHT31;67814;51.976;5.810;2023-02-28T06:10:23;5.1;55.4
78514;SHT31;67814;51.976;5.810;2023-02-28T06:12:53;5.2;55.8
78514;SHT31;67814;51.976;5.810;2023-02-28T06:15:22;5.2;54.9
78514;SHT31;67814;51.976;5.810;2023-02-28T06:17:52;5.2;55.3
78514;SHT31;67814;51.976;5.810;2023-02-28T06:20:25;5.2;55.4
78514;SHT31;67814;51.976;5.810;2023-02-28T06:22:57;5.2;54.4
78514;SHT31;67814;51.976;5.810;2023-02-28T06:25:28;5.2;54.0
78514;SHT31;67814;51.976;5.810;2023-02-28T06:27:57;5.2;54.3
78514;SHT31;67814;51.976;5.810;2023-02-28T06:30:29;5.2;52.8
78514;SHT31;67814;51.976;5.810;2023-02-28T06:33:01;5.2;54.8
78514;SHT31;67814;51.976;5.810;2023-02-28T06:35:31;5.3;54.5
78514;SHT31;67814;51.976;5.810;2023-02-28T06:38:02;5.3;54.8
78514;SHT31;67814;51.976;5.810;2023-02-28T06:40:32;5.3;54.0
78514;SHT31;67814;51.976;5.810;2023-02-28T06:43:03;5.3;53.2
78514;SHT31;67814;51.976;5.810;2023-02-28T06:45:33;5.3;54.0
78514;SHT31;67814;51.976;5.810;2023-02-28T06:48:03;5.3;54.4
78514;SHT31;67814;51.976;5.810;2023-02-28T06:50:32;5.3;54.3
78514;SHT31;67814;51.976;5.810;2023-02-28T06:53:02;5.3;54.7
78514;SHT31;67814;51.976;5.810;2023-02-28T06:55:32;5.3;53.6
78514;SHT31;67814;51.976;5.810;2023-02-28T06:58:03;5.4;54.3
78514;SHT31;67814;51.976;5.810;2023-02-28T07:00:38;5.4;52.4
78514;SHT31;67814;51.976;5.810;2023-02-28T07:03:07;5.4;53.9
78514;SHT31;67814;51.976;5.810;2023-02-28T07:05:38;5.4;54.5
78514;SHT31;67814;51.976;5.810;2023-02-28T07:08:08;5.5;54.9
78514;SHT31;67814;51.976;5.810;2023-02-28T07:10:39;5.5;54.4
78514;SHT31;67814;51.976;5.810;2023-02-28T07:13:09;5.6;52.1
78514;SHT31;67814;51.976;5.810;2023-02-28T07:15:41;5.6;52.2
78514;SHT31;67814;51.976;5.810;2023-02-28T07:18:10;5.6;48.8
78514;SHT31;67814;51.976;5.810;2023-02-28T07:20:40;5.6;48.8
78514;SHT31;67814;51.976;5.810;2023-02-28T07:23:09;5.6;48.0
78514;SHT31;67814;51.976;5.810;2023-02-28T07:25:41;5.7;47.9
78514;SHT31;67814;51.976;5.810;2023-02-28T07:28:11;5.7;47.3
78514;SHT31;67814;51.976;5.810;2023-02-28T07:30:42;5.7;47.1
78514;SHT31;67814;51.976;5.810;2023-02-28T07:33:12;5.7;45.4
78514;SHT31;67814;51.976;5.810;2023-02-28T07:35:42;5.7;46.0
78514;SHT31;67814;51.976;5.810;2023-02-28T07:38:11;5.7;45.5
78514;SHT31;67814;51.976;5.810;2023-02-28T07:40:41;5.8;44.7
78514;SHT31;67814;51.976;5.810;2023-02-28T07:43:11;5.8;45.1
78514;SHT31;67814;51.976;5.810;2023-02-28T07:45:40;5.8;43.8
78514;SHT31;67814;51.976;5.810;2023-02-28T07:48:10;5.9;43.5
78514;SHT31;67814;51.976;5.810;2023-02-28T07:50:40;5.9;42.1
78514;SHT31;67814;51.976;5.810;2023-02-28T07:53:09;6.0;42.1
78514;SHT31;67814;51.976;5.810;2023-02-28T07:55:39;6.0;42.0
78514;SHT31;67814;51.976;5.810;2023-02-28T07:58:08;6.0;42.6
78514;SHT31;67814;51.976;5.810;2023-02-28T08:00:38;6.1;41.7
78514;SHT31;67814;51.976;5.810;2023-02-28T08:03:09;6.1;41.2
78514;SHT31;67814;51.976;5.810;2023-02-28T08:05:40;6.2;42.9
78514;SHT31;67814;51.976;5.810;2023-02-28T08:08:10;6.2;41.0
78514;SHT31;67814;51.976;5.810;2023-02-28T08:10:40;6.2;40.2
78514;SHT31;67814;51.976;5.810;2023-02-28T08:13:09;6.3;40.6
78514;SHT31;67814;51.976;5.810;2023-02-28T08:15:40;6.3;39.2
78514;SHT31;67814;51.976;5.810;2023-02-28T08:18:10;6.3;38.7
78514;SHT31;67814;51.976;5.810;2023-02-28T08:20:39;6.3;38.6
78514;SHT31;67814;51.976;5.810;2023-02-28T08:23:09;6.2;38.0
78514;SHT31;67814;51.976;5.810;2023-02-28T08:25:39;6.2;39.2
78514;SHT31;67814;51.976;5.810;2023-02-28T08:28:09;6.1;39.0
78514;SHT31;67814;51.976;5.810;2023-02-28T08:30:38;6.1;39.3
78514;SHT31;67814;51.976;5.810;2023-02-28T08:33:08;6.1;39.9
78514;SHT31;67814;51.976;5.810;2023-02-28T08:35:38;6.1;39.2
78514;SHT31;67814;51.976;5.810;2023-02-28T08:38:07;6.1;41.4
78514;SHT31;67814;51.976;5.810;2023-02-28T08:40:37;6.1;41.2
78514;SHT31;67814;51.976;5.810;2023-02-28T08:43:07;6.1;39.6
78514;SHT31;67814;51.976;5.810;2023-02-28T08:45:37;6.2;40.0
78514;SHT31;67814;51.976;5.810;2023-02-28T08:48:07;6.2;39.5
78514;SHT31;67814;51.976;5.810;2023-02-28T08:50:37;6.2;38.8
78514;SHT31;67814;51.976;5.810;2023-02-28T08:53:07;6.2;38.7
78514;SHT31;67814;51.976;5.810;2023-02-28T08:55:36;6.2;39.0
78514;SHT31;67814;51.976;5.810;2023-02-28T08:58:06;6.2;39.0
78514;SHT31;67814;51.976;5.810;2023-02-28T09:00:35;6.2;37.1
78514;SHT31;67814;51.976;5.810;2023-02-28T09:03:05;6.2;37.2
78514;SHT31;67814;51.976;5.810;2023-02-28T09:05:34;6.2;35.8
78514;SHT31;67814;51.976;5.810;2023-02-28T09:08:04;6.2;35.7
78514;SHT31;67814;51.976;5.810;2023-02-28T09:10:34;6.2;34.3
78514;SHT31;67814;51.976;5.810;2023-02-28T09:13:04;6.2;34.6
78514;SHT31;67814;51.976;5.810;2023-02-28T09:15:33;6.2;35.4
78514;SHT31;67814;51.976;5.810;2023-02-28T09:18:03;6.2;35.5
78514;SHT31;67814;51.976;5.810;2023-02-28T09:20:32;6.2;35.8
78514;SHT31;67814;51.976;5.810;2023-02-28T09:23:02;6.2;35.4
78514;SHT31;67814;51.976;5.810;2023-02-28T09:25:32;6.3;35.5
78514;SHT31;67814;51.976;5.810;2023-02-28T09:28:02;6.3;34.5
78514;SHT31;67814;51.976;5.810;2023-02-28T09:30:32;6.3;34.0
78514;SHT31;67814;51.976;5.810;2023-02-28T09:33:03;6.4;34.4
78514;SHT31;67814;51.976;5.810;2023-02-28T09:35:33;6.4;33.6
78514;SHT31;67814;51.976;5.810;2023-02-28T09:38:04;6.4;33.8
78514;SHT31;67814;51.976;5.810;2023-02-28T09:40:39;6.4;34.4
78514;SHT31;67814;51.976;5.810;2023-02-28T09:43:14;6.4;34.3
78514;SHT31;67814;51.976;5.810;2023-02-28T09:45:50;6.4;32.9
78514;SHT31;67814;51.976;5.810;2023-02-28T09:48:31;6.4;32.2
78514;SHT31;67814;51.976;5.810;2023-02-28T09:51:04;6.5;33.0
78514;SHT31;67814;51.976;5.810;2023-02-28T09:53:37;6.5;31.7
78514;SHT31;67814;51.976;5.810;2023-02-28T09:56:09;6.5;33.1
78514;SHT31;67814;51.976;5.810;2023-02-28T09:58:44;6.5;33.3
78514;SHT31;67814;51.976;5.810;2023-02-28T10:01:24;6.5;34.3
78514;SHT31;67814;51.976;5.810;2023-02-28T10:04:00;6.5;33.0
78514;SHT31;67814;51.976;5.810;2023-02-28T10:06:41;6.6;33.7
78514;SHT31;67814;51.976;5.810;2023-02-28T10:09:19;6.6;33.8
78514;SHT31;67814;51.976;5.810;2023-02-28T10:11:52;6.6;33.1
78514;SHT31;67814;51.976;5.810;2023-02-28T10:14:26;6.7;32.9
78514;SHT31;67814;51.976;5.810;2023-02-28T10:17:01;6.7;33.7
78514;SHT31;67814;51.976;5.810;2023-02-28T10:19:38;6.7;33.3
78514;SHT31;67814;51.976;5.810;2023-02-28T10:22:15;6.7;33.1
78514;SHT31;67814;51.976;5.810;2023-02-28T10:24:47;6.8;32.6
78514;SHT31;67814;51.976;5.810;2023-02-28T10:27:21;6.8;33.4
78514;SHT31;67814;51.976;5.810;2023-02-28T10:29:53;6.9;34.0
78514;SHT31;67814;51.976;5.810;2023-02-28T10:32:26;6.9;33.2
78514;SHT31;67814;51.976;5.810;2023-02-28T10:35:00;6.9;32.1
78514;SHT31;67814;51.976;5.810;2023-02-28T10:37:32;7.0;31.8
78514;SHT31;67814;51.976;5.810;2023-02-28T10:40:07;7.0;31.6
78514;SHT31;67814;51.976;5.810;2023-02-28T10:42:41;7.0;33.0
78514;SHT31;67814;51.976;5.810;2023-02-28T10:45:14;7.0;33.0
78514;SHT31;67814;51.976;5.810;2023-02-28T10:47:56;7.0;33.1
78514;SHT31;67814;51.976;5.810;2023-02-28T10:50:32;7.0;33.2
78514;SHT31;67814;51.976;5.810;2023-02-28T10:53:30;7.1;32.3
78514;SHT31;67814;51.976;5.810;2023-02-28T10:56:03;7.1;32.9
78514;SHT31;67814;51.976;5.810;2023-02-28T10:58:47;7.1;33.2
78514;SHT31;67814;51.976;5.810;2023-02-28T11:01:20;7.1;33.5
78514;SHT31;67814;51.976;5.810;2023-02-28T11:03:51;7.1;33.4
78514;SHT31;67814;51.976;5.810;2023-02-28T11:06:23;7.2;33.6
78514;SHT31;67814;51.976;5.810;2023-02-28T11:08:56;7.2;33.7
78514;SHT31;67814;51.976;5.810;2023-02-28T11:11:29;7.2;33.0
78514;SHT31;67814;51.976;5.810;2023-02-28T11:14:07;7.2;33.4
78514;SHT31;67814;51.976;5.810;2023-02-28T11:16:41;7.2;33.7
78514;SHT31;67814;51.976;5.810;2023-02-28T11:19:20;7.3;32.9
78514;SHT31;67814;51.976;5.810;2023-02-28T11:21:57;7.3;34.7
78514;SHT31;67814;51.976;5.810;2023-02-28T11:24:31;7.4;34.5
78514;SHT31;67814;51.976;5.810;2023-02-28T11:27:03;7.4;33.9
78514;SHT31;67814;51.976;5.810;2023-02-28T11:29:33;7.4;33.7
78514;SHT31;67814;51.976;5.810;2023-02-28T11:32:26;7.5;33.1
78514;SHT31;67814;51.976;5.810;2023-02-28T11:35:17;7.5;33.9
78514;SHT31;67814;51.976;5.810;2023-02-28T11:37:52;7.5;33.3
78514;SHT31;67814;51.976;5.810;2023-02-28T11:40:35;7.5;32.1
78514;SHT31;67814;51.976;5.810;2023-02-28T11:43:20;7.5;32.1
78514;SHT31;67814;51.976;5.810;2023-02-28T11:46:10;7.5;32.3
78514;SHT31;67814;51.976;5.810;2023-02-28T11:48:52;7.5;33.1
78514;SHT31;67814;51.976;5.810;2023-02-28T11:51:30;7.5;33.3
78514;SHT31;67814;51.976;5.810;2023-02-28T11:54:17;7.5;33.2
78514;SHT31;67814;51.976;5.810;2023-02-28T11:56:54;7.5;33.5
78514;SHT31;67814;51.976;5.810;2023-02-28T11:59:43;7.5;33.4
78514;SHT31;67814;51.976;5.810;2023-02-28T12:02:24;7.6;32.0
78514;SHT31;67814;51.976;5.810;2023-02-28T12:05:08;7.6;32.6
78514;SHT31;67814;51.976;5.810;2023-02-28T12:07:54;7.6;32.7
78514;SHT31;67814;51.976;5.810;2023-02-28T12:10:29;7.7;32.0
78514;SHT31;67814;51.976;5.810;2023-02-28T12:13:12;7.7;31.5
78514;SHT31;67814;51.976;5.810;2023-02-28T12:16:38;7.7;32.2
78514;SHT31;67814;51.976;5.810;2023-02-28T12:19:20;7.7;32.3
78514;SHT31;67814;51.976;5.810;2023-02-28T12:22:25;7.7;32.9
78514;SHT31;67814;51.976;5.810;2023-02-28T12:25:28;7.8;32.5
78514;SHT31;67814;51.976;5.810;2023-02-28T12:28:00;7.8;31.4
78514;SHT31;67814;51.976;5.810;2023-02-28T12:30:33;7.8;31.8
78514;SHT31;67814;51.976;5.810;2023-02-28T12:33:07;7.9;32.3
78514;SHT31;67814;51.976;5.810;2023-02-28T12:35:47;7.9;31.2
78514;SHT31;67814;51.976;5.810;2023-02-28T12:38:21;8.0;31.8
78514;SHT31;67814;51.976;5.810;2023-02-28T12:40:55;8.0;31.7
78514;SHT31;67814;51.976;5.810;2023-02-28T12:43:30;8.0;31.1
78514;SHT31;67814;51.976;5.810;2023-02-28T12:46:10;8.0;30.5
78514;SHT31;67814;51.976;5.810;2023-02-28T12:48:44;8.0;30.6
78514;SHT31;67814;51.976;5.810;2023-02-28T12:51:16;8.0;31.3
78514;SHT31;67814;51.976;5.810;2023-02-28T12:53:56;8.0;31.6
78514;SHT31;67814;51.976;5.810;2023-02-28T12:56:35;8.0;31.7
78514;SHT31;67814;51.976;5.810;2023-02-28T12:59:14;8.1;30.6
78514;SHT31;67814;51.976;5.810;2023-02-28T13:02:02;8.1;30.9
78514;SHT31;67814;51.976;5.810;2023-02-28T13:04:57;8.2;30.7
78514;SHT31;67814;51.976;5.810;2023-02-28T13:07:52;8.2;30.7
78514;SHT31;67814;51.976;5.810;2023-02-28T13:10:42;8.2;30.3
78514;SHT31;67814;51.976;5.810;2023-02-28T13:13:18;8.2;30.5
78514;SHT31;67814;51.976;5.810;2023-02-28T13:16:03;8.3;29.6
78514;SHT31;67814;51.976;5.810;2023-02-28T13:18:37;8.3;31.3
78514;SHT31;67814;51.976;5.810;2023-02-28T13:21:09;8.3;31.2
78514;SHT31;67814;51.976;5.810;2023-02-28T13:24:00;8.3;31.4
78514;SHT31;67814;51.976;5.810;2023-02-28T13:27:22;8.4;31.0
78514;SHT31;67814;51.976;5.810;2023-02-28T13:29:53;8.4;31.0
78514;SHT31;67814;51.976;5.810;2023-02-28T13:33:20;8.4;31.0
78514;SHT31;67814;51.976;5.810;2023-02-28T13:36:10;8.4;30.6
78514;SHT31;67814;51.976;5.810;2023-02-28T13:38:42;8.4;30.4
78514;SHT31;67814;51.976;5.810;2023-02-28T13:41:44;8.4;29.6
78514;SHT31;67814;51.976;5.810;2023-02-28T13:44:18;8.4;30.2
78514;SHT31;67814;51.976;5.810;2023-02-28T13:47:19;8.4;30.5
78514;SHT31;67814;51.976;5.810;2023-02-28T13:49:53;8.4;30.0
78514;SHT31;67814;51.976;5.810;2023-02-28T13:52:24;8.4;30.1
78514;SHT31;67814;51.976;5.810;2023-02-28T13:55:00;8.5;30.9
78514;SHT31;67814;51.976;5.810;2023-02-28T13:57:44;8.5;30.5
78514;SHT31;67814;51.976;5.810;2023-02-28T14:00:23;8.5;30.7
78514;SHT31;67814;51.976;5.810;2023-02-28T14:03:26;8.5;30.4
78514;SHT31;67814;51.976;5.810;2023-02-28T14:06:17;8.5;31.1
78514;SHT31;67814;51.976;5.810;2023-02-28T14:08:53;8.5;31.0
78514;SHT31;67814;51.976;5.810;2023-02-28T14:11:30;8.5;30.4
78514;SHT31;67814;51.976;5.810;2023-02-28T14:14:03;8.5;30.8
78514;SHT31;67814;51.976;5.810;2023-02-28T14:16:44;8.6;31.0
78514;SHT31;67814;51.976;5.810;2023-02-28T14:19:21;8.6;30.6
78514;SHT31;67814;51.976;5.810;2023-02-28T14:22:03;8.6;31.0
78514;SHT31;67814;51.976;5.810;2023-02-28T14:25:24;8.6;31.4
78514;SHT31;67814;51.976;5.810;2023-02-28T14:28:11;8.7;30.4
78514;SHT31;67814;51.976;5.810;2023-02-28T14:30:56;8.7;30.9
78514;SHT31;67814;51.976;5.810;2023-02-28T14:33:45;8.7;30.3
78514;SHT31;67814;51.976;5.810;2023-02-28T14:36:20;8.7;30.9
78514;SHT31;67814;51.976;5.810;2023-02-28T14:38:53;8.8;30.3
78514;SHT31;67814;51.976;5.810;2023-02-28T14:41:29;8.8;30.8
78514;SHT31;67814;51.976;5.810;2023-02-28T14:44:12;8.8;30.9
78514;SHT31;67814;51.976;5.810;2023-02-28T14:46:41;8.8;31.2
78514;SHT31;67814;51.976;5.810;2023-02-28T14:49:18;8.8;31.4
78514;SHT31;67814;51.976;5.810;2023-02-28T14:51:50;8.8;29.7
78514;SHT31;67814;51.976;5.810;2023-02-28T14:54:22;8.7;29.9
78514;SHT31;67814;51.976;5.810;2023-02-28T14:56:53;8.7;30.5
78514;SHT31;67814;51.976;5.810;2023-02-28T14:59:27;8.7;30.1
78514;SHT31;67814;51.976;5.810;2023-02-28T15:02:15;8.6;30.5
78514;SHT31;67814;51.976;5.810;2023-02-28T15:04:56;8.6;31.1
78514;SHT31;67814;51.976;5.810;2023-02-28T15:07:27;8.6;32.0
78514;SHT31;67814;51.976;5.810;2023-02-28T15:10:12;8.6;30.9
78514;SHT31;67814;51.976;5.810;2023-02-28T15:12:47;8.6;30.2
78514;SHT31;67814;51.976;5.810;2023-02-28T15:15:20;8.6;30.2
78514;SHT31;67814;51.976;5.810;2023-02-28T15:17:58;8.6;30.4
78514;SHT31;67814;51.976;5.810;2023-02-28T15:20:29;8.6;30.7
78514;SHT31;67814;51.976;5.810;2023-02-28T15:22:59;8.6;31.7
78514;SHT31;67814;51.976;5.810;2023-02-28T15:25:29;8.6;32.0
78514;SHT31;67814;51.976;5.810;2023-02-28T15:27:59;8.6;31.6
78514;SHT31;67814;51.976;5.810;2023-02-28T15:30:31;8.7;31.6
78514;SHT31;67814;51.976;5.810;2023-02-28T15:33:15;8.7;31.9
78514;SHT31;67814;51.976;5.810;2023-02-28T15:35:41;8.7;31.0
78514;SHT31;67814;51.976;5.810;2023-02-28T15:38:17;8.7;31.9
78514;SHT31;67814;51.976;5.810;2023-02-28T15:40:51;8.7;31.4
78514;SHT31;67814;51.976;5.810;2023-02-28T15:43:27;8.7;30.8
78514;SHT31;67814;51.976;5.810;2023-02-28T15:46:00;8.7;30.5
78514;SHT31;67814;51.976;5.810;2023-02-28T15:48:33;8.7;30.4
78514;SHT31;67814;51.976;5.810;2023-02-28T15:51:07;8.7;30.4
78514;SHT31;67814;51.976;5.810;2023-02-28T15:53:44;8.7;30.3
78514;SHT31;67814;51.976;5.810;2023-02-28T15:56:22;8.7;29.7
78514;SHT31;67814;51.976;5.810;2023-02-28T15:58:56;8.7;29.4
78514;SHT31;67814;51.976;5.810;2023-02-28T16:01:28;8.7;29.8
78514;SHT31;67814;51.976;5.810;2023-02-28T16:04:01;8.7;30.2
78514;SHT31;67814;51.976;5.810;2023-02-28T16:06:38;8.7;30.9
78514;SHT31;67814;51.976;5.810;2023-02-28T16:09:12;8.7;31.1
78514;SHT31;67814;51.976;5.810;2023-02-28T16:11:48;8.6;30.1
78514;SHT31;67814;51.976;5.810;2023-02-28T16:14:21;8.6;30.4
78514;SHT31;67814;51.976;5.810;2023-02-28T16:16:54;8.6;30.8
78514;SHT31;67814;51.976;5.810;2023-02-28T16:19:25;8.6;30.2
78514;SHT31;67814;51.976;5.810;2023-02-28T16:21:55;8.5;30.4
78514;SHT31;67814;51.976;5.810;2023-02-28T16:24:24;8.5;31.3
78514;SHT31;67814;51.976;5.810;2023-02-28T16:26:56;8.5;30.6
78514;SHT31;67814;51.976;5.810;2023-02-28T16:29:31;8.5;31.0
78514;SHT31;67814;51.976;5.810;2023-02-28T16:32:02;8.4;31.3
78514;SHT31;67814;51.976;5.810;2023-02-28T16:34:33;8.4;30.7
78514;SHT31;67814;51.976;5.810;2023-02-28T16:37:07;8.4;31.0
78514;SHT31;67814;51.976;5.810;2023-02-28T16:39:39;8.4;31.2
78514;SHT31;67814;51.976;5.810;2023-02-28T16:42:14;8.4;31.3
78514;SHT31;67814;51.976;5.810;2023-02-28T16:44:44;8.4;31.4
78514;SHT31;67814;51.976;5.810;2023-02-28T16:47:13;8.4;32.0
78514;SHT31;67814;51.976;5.810;2023-02-28T16:49:43;8.3;32.2
78514;SHT31;67814;51.976;5.810;2023-02-28T16:52:15;8.3;31.5
78514;SHT31;67814;51.976;5.810;2023-02-28T16:54:45;8.3;32.0
78514;SHT31;67814;51.976;5.810;2023-02-28T16:57:21;8.3;31.9
78514;SHT31;67814;51.976;5.810;2023-02-28T16:59:52;8.2;31.6
78514;SHT31;67814;51.976;5.810;2023-02-28T17:02:21;8.2;33.5
78514;SHT31;67814;51.976;5.810;2023-02-28T17:04:53;8.1;34.9
78514;SHT31;67814;51.976;5.810;2023-02-28T17:07:22;8.0;34.9
78514;SHT31;67814;51.976;5.810;2023-02-28T17:09:52;7.9;34.0
78514;SHT31;67814;51.976;5.810;2023-02-28T17:12:22;7.9;37.1